sensor_id;sensor_type;location;lat;lon;timestamp;P1;durP1;ratioP1;P2;durP2;ratioP2
21497;SDS011;10910;50.932;0.246;2022-08-03T00:01:59;0.40;;;0.40;;
21497;SDS011;10910;50.932;0.246;2022-08-03T00:04:27;0.50;;;0.50;;
21497;SDS011;10910;50.932;0.246;2022-08-03T00:06:53;0.40;;;0.40;;
21497;SDS011;10910;50.932;0.246;2022-08-03T00:09:19;0.50;;;0.50;;
21497;SDS011;10910;50.932;0.246;2022-08-03T00:11:46;0.40;;;0.40;;
21497;SDS011;10910;50.932;0.246;2022-08-03T00:14:12;0.40;;;0.40;;
21497;SDS011;10910;50.932;0.246;2022-08-03T00:16:38;0.30;;;0.30;;
21497;SDS011;10910;50.932;0.246;2022-08-03T00:19:04;0.30;;;0.30;;
21497;SDS011;10910;50.932;0.246;2022-08-03T00:21:30;0.40;;;0.40;;
21497;SDS011;10910;50.932;0.246;2022-08-03T00:23:56;0.22;;;0.22;;
21497;SDS011;10910;50.932;0.246;2022-08-03T00:26:22;0.40;;;0.40;;
21497;SDS011;10910;50.932;0.246;2022-08-03T00:28:48;0.30;;;0.30;;
21497;SDS011;10910;50.932;0.246;2022-08-03T00:31:14;0.40;;;0.40;;
21497;SDS011;10910;50.932;0.246;2022-08-03T00:33:40;0.40;;;0.40;;
21497;SDS011;10910;50.932;0.246;2022-08-03T00:36:07;0.30;;;0.30;;
21497;SDS011;10910;50.932;0.246;2022-08-03T00:38:33;0.43;;;0.43;;
21497;SDS011;10910;50.932;0.246;2022-08-03T00:41:00;0.20;;;0.20;;
21497;SDS011;10910;50.932;0.246;2022-08-03T00:43:26;0.40;;;0.40;;
21497;SDS011;10910;50.932;0.246;2022-08-03T00:45:52;0.30;;;0.30;;
21497;SDS011;10910;50.932;0.246;2022-08-03T00:48:19;0.40;;;0.40;;
21497;SDS011;10910;50.932;0.246;2022-08-03T00:50:45;0.40;;;0.40;;
21497;SDS011;10910;50.932;0.246;2022-08-03T00:53:12;0.40;;;0.40;;
21497;SDS011;10910;50.932;0.246;2022-08-03T00:55:47;0.30;;;0.30;;
21497;SDS011;10910;50.932;0.246;2022-08-03T00:58:13;0.40;;;0.40;;
21497;SDS011;10910;50.932;0.246;2022-08-03T01:00:40;0.38;;;0.38;;
21497;SDS011;10910;50.932;0.246;2022-08-03T01:03:06;0.38;;;0.38;;
21497;SDS011;10910;50.932;0.246;2022-08-03T01:16:47;0.40;;;0.40;;
21497;SDS011;10910;50.932;0.246;2022-08-03T01:19:24;0.40;;;0.40;;
21497;SDS011;10910;50.932;0.246;2022-08-03T01:25:16;0.50;;;0.50;;
21497;SDS011;10910;50.932;0.246;2022-08-03T01:30:47;0.40;;;0.40;;
21497;SDS011;10910;50.932;0.246;2022-08-03T01:33:25;0.30;;;0.30;;
21497;SDS011;10910;50.932;0.246;2022-08-03T01:35:57;0.30;;;0.30;;
21497;SDS011;10910;50.932;0.246;2022-08-03T01:38:34;0.40;;;0.40;;
21497;SDS011;10910;50.932;0.246;2022-08-03T01:41:07;0.30;;;0.30;;
21497;SDS011;10910;50.932;0.246;2022-08-03T01:43:33;0.40;;;0.40;;
21497;SDS011;10910;50.932;0.246;2022-08-03T01:46:00;0.32;;;0.32;;
21497;SDS011;10910;50.932;0.246;2022-08-03T01:48:27;0.43;;;0.43;;
21497;SDS011;10910;50.932;0.246;2022-08-03T01:50:54;0.45;;;0.45;;
21497;SDS011;10910;50.932;0.246;2022-08-03T01:53:20;0.40;;;0.40;;
21497;SDS011;10910;50.932;0.246;2022-08-03T01:55:50;0.40;;;0.40;;
21497;SDS011;10910;50.932;0.246;2022-08-03T01:58:18;0.38;;;0.38;;
21497;SDS011;10910;50.932;0.246;2022-08-03T02:00:45;0.40;;;0.40;;
21497;SDS011;10910;50.932;0.246;2022-08-03T02:03:12;0.40;;;0.40;;
21497;SDS011;10910;50.932;0.246;2022-08-03T02:05:39;0.45;;;0.45;;
21497;SDS011;10910;50.932;0.246;2022-08-03T02:08:06;0.43;;;0.43;;
21497;SDS011;10910;50.932;0.246;2022-08-03T02:10:33;0.50;;;0.50;;
21497;SDS011;10910;50.932;0.246;2022-08-03T02:13:00;0.40;;;0.40;;
21497;SDS011;10910;50.932;0.246;2022-08-03T02:15:27;0.40;;;0.40;;
21497;SDS011;10910;50.932;0.246;2022-08-03T02:17:55;0.40;;;0.40;;
21497;SDS011;10910;50.932;0.246;2022-08-03T02:20:22;0.40;;;0.40;;
21497;SDS011;10910;50.932;0.246;2022-08-03T02:22:48;0.40;;;0.40;;
21497;SDS011;10910;50.932;0.246;2022-08-03T02:25:16;0.50;;;0.50;;
21497;SDS011;10910;50.932;0.246;2022-08-03T02:27:45;0.40;;;0.40;;
21497;SDS011;10910;50.932;0.246;2022-08-03T02:30:13;0.40;;;0.40;;
21497;SDS011;10910;50.932;0.246;2022-08-03T02:32:40;0.43;;;0.43;;
21497;SDS011;10910;50.932;0.246;2022-08-03T02:35:09;0.40;;;0.40;;
21497;SDS011;10910;50.932;0.246;2022-08-03T02:37:41;0.40;;;0.40;;
21497;SDS011;10910;50.932;0.246;2022-08-03T02:40:07;0.40;;;0.40;;
21497;SDS011;10910;50.932;0.246;2022-08-03T02:42:35;0.40;;;0.40;;
21497;SDS011;10910;50.932;0.246;2022-08-03T02:45:04;0.40;;;0.40;;
21497;SDS011;10910;50.932;0.246;2022-08-03T02:47:31;0.40;;;0.40;;
21497;SDS011;10910;50.932;0.246;2022-08-03T02:50:00;0.40;;;0.40;;
21497;SDS011;10910;50.932;0.246;2022-08-03T02:52:27;0.30;;;0.30;;
21497;SDS011;10910;50.932;0.246;2022-08-03T02:54:56;0.50;;;0.50;;
21497;SDS011;10910;50.932;0.246;2022-08-03T02:57:24;0.30;;;0.30;;
21497;SDS011;10910;50.932;0.246;2022-08-03T02:59:51;0.30;;;0.30;;
21497;SDS011;10910;50.932;0.246;2022-08-03T03:02:18;0.40;;;0.40;;
21497;SDS011;10910;50.932;0.246;2022-08-03T03:04:44;0.40;;;0.40;;
21497;SDS011;10910;50.932;0.246;2022-08-03T03:07:11;0.40;;;0.40;;
21497;SDS011;10910;50.932;0.246;2022-08-03T03:09:38;0.40;;;0.40;;
21497;SDS011;10910;50.932;0.246;2022-08-03T03:12:06;0.45;;;0.45;;
21497;SDS011;10910;50.932;0.246;2022-08-03T03:14:34;0.45;;;0.45;;
21497;SDS011;10910;50.932;0.246;2022-08-03T03:17:01;0.40;;;0.40;;
21497;SDS011;10910;50.932;0.246;2022-08-03T03:19:27;0.38;;;0.38;;
21497;SDS011;10910;50.932;0.246;2022-08-03T03:21:54;0.30;;;0.30;;
21497;SDS011;10910;50.932;0.246;2022-08-03T03:24:21;0.32;;;0.32;;
21497;SDS011;10910;50.932;0.246;2022-08-03T03:26:47;0.30;;;0.30;;
21497;SDS011;10910;50.932;0.246;2022-08-03T03:29:14;0.40;;;0.40;;
21497;SDS011;10910;50.932;0.246;2022-08-03T03:31:40;0.30;;;0.30;;
21497;SDS011;10910;50.932;0.246;2022-08-03T03:34:06;0.40;;;0.40;;
21497;SDS011;10910;50.932;0.246;2022-08-03T03:36:33;0.38;;;0.38;;
21497;SDS011;10910;50.932;0.246;2022-08-03T03:39:00;0.30;;;0.30;;
21497;SDS011;10910;50.932;0.246;2022-08-03T03:41:26;0.45;;;0.45;;
21497;SDS011;10910;50.932;0.246;2022-08-03T03:43:52;0.40;;;0.40;;
21497;SDS011;10910;50.932;0.246;2022-08-03T03:46:19;0.40;;;0.40;;
21497;SDS011;10910;50.932;0.246;2022-08-03T03:48:45;0.30;;;0.30;;
21497;SDS011;10910;50.932;0.246;2022-08-03T03:51:11;0.40;;;0.40;;
21497;SDS011;10910;50.932;0.246;2022-08-03T03:53:37;0.40;;;0.40;;
21497;SDS011;10910;50.932;0.246;2022-08-03T03:56:03;0.40;;;0.40;;
21497;SDS011;10910;50.932;0.246;2022-08-03T03:58:30;0.30;;;0.30;;
21497;SDS011;10910;50.932;0.246;2022-08-03T04:00:56;0.43;;;0.43;;
21497;SDS011;10910;50.932;0.246;2022-08-03T04:03:22;0.47;;;0.47;;
21497;SDS011;10910;50.932;0.246;2022-08-03T04:05:49;0.40;;;0.40;;
21497;SDS011;10910;50.932;0.246;2022-08-03T04:08:34;0.40;;;0.40;;
21497;SDS011;10910;50.932;0.246;2022-08-03T04:11:26;0.50;;;0.50;;
21497;SDS011;10910;50.932;0.246;2022-08-03T04:13:55;0.40;;;0.40;;
21497;SDS011;10910;50.932;0.246;2022-08-03T04:16:22;0.40;;;0.40;;
21497;SDS011;10910;50.932;0.246;2022-08-03T04:18:58;0.40;;;0.40;;
21497;SDS011;10910;50.932;0.246;2022-08-03T04:21:25;0.40;;;0.40;;
21497;SDS011;10910;50.932;0.246;2022-08-03T04:23:52;0.40;;;0.40;;
21497;SDS011;10910;50.932;0.246;2022-08-03T04:26:19;0.50;;;0.50;;
21497;SDS011;10910;50.932;0.246;2022-08-03T04:28:45;0.38;;;0.38;;
21497;SDS011;10910;50.932;0.246;2022-08-03T04:31:12;0.30;;;0.30;;
21497;SDS011;10910;50.932;0.246;2022-08-03T04:33:39;0.40;;;0.40;;
21497;SDS011;10910;50.932;0.246;2022-08-03T04:36:06;0.40;;;0.40;;
21497;SDS011;10910;50.932;0.246;2022-08-03T04:38:43;0.40;;;0.40;;
21497;SDS011;10910;50.932;0.246;2022-08-03T04:41:14;0.50;;;0.50;;
21497;SDS011;10910;50.932;0.246;2022-08-03T04:43:41;0.40;;;0.40;;
21497;SDS011;10910;50.932;0.246;2022-08-03T04:46:07;0.40;;;0.40;;
21497;SDS011;10910;50.932;0.246;2022-08-03T04:48:33;0.40;;;0.40;;
21497;SDS011;10910;50.932;0.246;2022-08-03T04:51:00;0.32;;;0.32;;
21497;SDS011;10910;50.932;0.246;2022-08-03T04:53:28;0.40;;;0.40;;
21497;SDS011;10910;50.932;0.246;2022-08-03T04:55:54;0.30;;;0.30;;
21497;SDS011;10910;50.932;0.246;2022-08-03T04:58:20;0.40;;;0.40;;
21497;SDS011;10910;50.932;0.246;2022-08-03T05:00:46;0.50;;;0.50;;
21497;SDS011;10910;50.932;0.246;2022-08-03T05:03:15;0.43;;;0.43;;
21497;SDS011;10910;50.932;0.246;2022-08-03T05:05:41;0.50;;;0.50;;
21497;SDS011;10910;50.932;0.246;2022-08-03T05:08:07;0.43;;;0.43;;
21497;SDS011;10910;50.932;0.246;2022-08-03T05:10:33;0.40;;;0.40;;
21497;SDS011;10910;50.932;0.246;2022-08-03T05:12:59;0.40;;;0.40;;
21497;SDS011;10910;50.932;0.246;2022-08-03T05:15:25;0.40;;;0.40;;
21497;SDS011;10910;50.932;0.246;2022-08-03T05:17:51;0.40;;;0.40;;
21497;SDS011;10910;50.932;0.246;2022-08-03T05:20:17;0.40;;;0.40;;
21497;SDS011;10910;50.932;0.246;2022-08-03T05:22:44;0.40;;;0.40;;
21497;SDS011;10910;50.932;0.246;2022-08-03T05:25:10;0.40;;;0.40;;
21497;SDS011;10910;50.932;0.246;2022-08-03T05:27:36;0.40;;;0.40;;
21497;SDS011;10910;50.932;0.246;2022-08-03T05:30:02;0.32;;;0.32;;
21497;SDS011;10910;50.932;0.246;2022-08-03T05:32:28;0.30;;;0.30;;
21497;SDS011;10910;50.932;0.246;2022-08-03T05:34:54;0.40;;;0.40;;
21497;SDS011;10910;50.932;0.246;2022-08-03T05:37:20;0.30;;;0.30;;
21497;SDS011;10910;50.932;0.246;2022-08-03T05:39:46;0.40;;;0.40;;
21497;SDS011;10910;50.932;0.246;2022-08-03T05:42:14;0.43;;;0.43;;
21497;SDS011;10910;50.932;0.246;2022-08-03T05:44:40;0.28;;;0.28;;
21497;SDS011;10910;50.932;0.246;2022-08-03T05:47:06;0.30;;;0.30;;
21497;SDS011;10910;50.932;0.246;2022-08-03T05:49:33;0.30;;;0.30;;
21497;SDS011;10910;50.932;0.246;2022-08-03T05:51:59;0.30;;;0.30;;
21497;SDS011;10910;50.932;0.246;2022-08-03T05:54:25;0.40;;;0.40;;
21497;SDS011;10910;50.932;0.246;2022-08-03T05:56:51;0.30;;;0.30;;
21497;SDS011;10910;50.932;0.246;2022-08-03T05:59:17;0.22;;;0.22;;
21497;SDS011;10910;50.932;0.246;2022-08-03T06:01:43;0.32;;;0.32;;
21497;SDS011;10910;50.932;0.246;2022-08-03T06:04:10;0.40;;;0.40;;
21497;SDS011;10910;50.932;0.246;2022-08-03T06:06:36;0.40;;;0.40;;
21497;SDS011;10910;50.932;0.246;2022-08-03T06:09:02;0.40;;;0.40;;
21497;SDS011;10910;50.932;0.246;2022-08-03T06:11:28;0.30;;;0.30;;
21497;SDS011;10910;50.932;0.246;2022-08-03T06:13:54;0.40;;;0.40;;
21497;SDS011;10910;50.932;0.246;2022-08-03T06:16:20;0.40;;;0.40;;
21497;SDS011;10910;50.932;0.246;2022-08-03T06:18:46;0.30;;;0.30;;
21497;SDS011;10910;50.932;0.246;2022-08-03T06:21:12;0.40;;;0.40;;
21497;SDS011;10910;50.932;0.246;2022-08-03T06:23:38;0.40;;;0.40;;
21497;SDS011;10910;50.932;0.246;2022-08-03T06:26:06;0.43;;;0.43;;
21497;SDS011;10910;50.932;0.246;2022-08-03T06:28:32;0.28;;;0.28;;
21497;SDS011;10910;50.932;0.246;2022-08-03T06:30:58;0.30;;;0.30;;
21497;SDS011;10910;50.932;0.246;2022-08-03T06:33:24;0.30;;;0.30;;
21497;SDS011;10910;50.932;0.246;2022-08-03T06:35:50;0.30;;;0.30;;
21497;SDS011;10910;50.932;0.246;2022-08-03T06:38:17;0.30;;;0.30;;
21497;SDS011;10910;50.932;0.246;2022-08-03T06:40:43;0.30;;;0.30;;
21497;SDS011;10910;50.932;0.246;2022-08-03T06:43:09;0.40;;;0.40;;
21497;SDS011;10910;50.932;0.246;2022-08-03T06:45:35;0.40;;;0.40;;
21497;SDS011;10910;50.932;0.246;2022-08-03T06:48:03;0.30;;;0.30;;
21497;SDS011;10910;50.932;0.246;2022-08-03T06:50:30;0.40;;;0.40;;
21497;SDS011;10910;50.932;0.246;2022-08-03T06:52:56;0.40;;;0.40;;
21497;SDS011;10910;50.932;0.246;2022-08-03T06:55:22;0.35;;;0.35;;
21497;SDS011;10910;50.932;0.246;2022-08-03T06:57:48;0.30;;;0.30;;
21497;SDS011;10910;50.932;0.246;2022-08-03T07:00:15;0.40;;;0.40;;
21497;SDS011;10910;50.932;0.246;2022-08-03T07:02:41;0.30;;;0.30;;
21497;SDS011;10910;50.932;0.246;2022-08-03T07:05:07;0.28;;;0.28;;
21497;SDS011;10910;50.932;0.246;2022-08-03T07:07:34;0.30;;;0.30;;
21497;SDS011;10910;50.932;0.246;2022-08-03T07:10:00;0.30;;;0.30;;
21497;SDS011;10910;50.932;0.246;2022-08-03T07:12:27;0.30;;;0.30;;
21497;SDS011;10910;50.932;0.246;2022-08-03T07:14:54;0.50;;;0.50;;
21497;SDS011;10910;50.932;0.246;2022-08-03T07:17:20;0.30;;;0.30;;
21497;SDS011;10910;50.932;0.246;2022-08-03T07:19:47;0.35;;;0.35;;
21497;SDS011;10910;50.932;0.246;2022-08-03T07:22:13;0.38;;;0.38;;
21497;SDS011;10910;50.932;0.246;2022-08-03T07:24:39;0.40;;;0.40;;
21497;SDS011;10910;50.932;0.246;2022-08-03T07:27:09;0.32;;;0.32;;
21497;SDS011;10910;50.932;0.246;2022-08-03T07:29:36;0.30;;;0.30;;
21497;SDS011;10910;50.932;0.246;2022-08-03T07:32:02;0.30;;;0.30;;
21497;SDS011;10910;50.932;0.246;2022-08-03T07:34:29;0.40;;;0.40;;
21497;SDS011;10910;50.932;0.246;2022-08-03T07:36:55;0.30;;;0.30;;
21497;SDS011;10910;50.932;0.246;2022-08-03T07:39:21;0.40;;;0.40;;
21497;SDS011;10910;50.932;0.246;2022-08-03T07:41:47;0.30;;;0.30;;
21497;SDS011;10910;50.932;0.246;2022-08-03T07:44:15;0.30;;;0.30;;
21497;SDS011;10910;50.932;0.246;2022-08-03T07:46:42;0.30;;;0.30;;
21497;SDS011;10910;50.932;0.246;2022-08-03T07:49:08;0.30;;;0.30;;
21497;SDS011;10910;50.932;0.246;2022-08-03T07:51:34;0.40;;;0.40;;
21497;SDS011;10910;50.932;0.246;2022-08-03T07:54:00;0.30;;;0.30;;
21497;SDS011;10910;50.932;0.246;2022-08-03T07:56:26;0.30;;;0.30;;
21497;SDS011;10910;50.932;0.246;2022-08-03T07:58:53;0.40;;;0.40;;
21497;SDS011;10910;50.932;0.246;2022-08-03T08:01:19;0.30;;;0.30;;
21497;SDS011;10910;50.932;0.246;2022-08-03T08:03:46;0.32;;;0.32;;
21497;SDS011;10910;50.932;0.246;2022-08-03T08:06:12;0.40;;;0.40;;
21497;SDS011;10910;50.932;0.246;2022-08-03T08:08:38;0.30;;;0.30;;
21497;SDS011;10910;50.932;0.246;2022-08-03T08:11:05;0.20;;;0.20;;
21497;SDS011;10910;50.932;0.246;2022-08-03T08:13:31;0.40;;;0.40;;
21497;SDS011;10910;50.932;0.246;2022-08-03T08:15:57;0.30;;;0.30;;
21497;SDS011;10910;50.932;0.246;2022-08-03T08:18:24;0.30;;;0.30;;
21497;SDS011;10910;50.932;0.246;2022-08-03T08:20:50;0.30;;;0.30;;
21497;SDS011;10910;50.932;0.246;2022-08-03T08:23:16;0.40;;;0.40;;
21497;SDS011;10910;50.932;0.246;2022-08-03T08:25:49;0.30;;;0.30;;
21497;SDS011;10910;50.932;0.246;2022-08-03T08:28:16;0.30;;;0.30;;
21497;SDS011;10910;50.932;0.246;2022-08-03T08:30:42;0.30;;;0.30;;
21497;SDS011;10910;50.932;0.246;2022-08-03T08:33:08;0.30;;;0.30;;
21497;SDS011;10910;50.932;0.246;2022-08-03T08:35:34;0.30;;;0.30;;
21497;SDS011;10910;50.932;0.246;2022-08-03T08:38:00;0.35;;;0.35;;
21497;SDS011;10910;50.932;0.246;2022-08-03T08:40:27;0.30;;;0.30;;
21497;SDS011;10910;50.932;0.246;2022-08-03T08:42:53;0.40;;;0.40;;
21497;SDS011;10910;50.932;0.246;2022-08-03T08:45:19;0.40;;;0.40;;
21497;SDS011;10910;50.932;0.246;2022-08-03T08:47:46;0.40;;;0.40;;
21497;SDS011;10910;50.932;0.246;2022-08-03T08:50:12;0.47;;;0.47;;
21497;SDS011;10910;50.932;0.246;2022-08-03T08:52:39;0.30;;;0.30;;
21497;SDS011;10910;50.932;0.246;2022-08-03T08:55:07;0.30;;;0.30;;
21497;SDS011;10910;50.932;0.246;2022-08-03T08:57:37;0.30;;;0.30;;
21497;SDS011;10910;50.932;0.246;2022-08-03T09:00:07;0.20;;;0.20;;
21497;SDS011;10910;50.932;0.246;2022-08-03T09:02:38;0.30;;;0.30;;
21497;SDS011;10910;50.932;0.246;2022-08-03T09:05:08;0.45;;;0.45;;
21497;SDS011;10910;50.932;0.246;2022-08-03T09:07:35;0.50;;;0.50;;
21497;SDS011;10910;50.932;0.246;2022-08-03T09:10:02;0.30;;;0.30;;
21497;SDS011;10910;50.932;0.246;2022-08-03T09:12:28;0.30;;;0.30;;
21497;SDS011;10910;50.932;0.246;2022-08-03T09:14:54;0.32;;;0.32;;
21497;SDS011;10910;50.932;0.246;2022-08-03T09:17:20;0.32;;;0.32;;
21497;SDS011;10910;50.932;0.246;2022-08-03T09:20:03;0.30;;;0.30;;
21497;SDS011;10910;50.932;0.246;2022-08-03T09:22:30;0.30;;;0.30;;
21497;SDS011;10910;50.932;0.246;2022-08-03T09:25:01;0.40;;;0.40;;
21497;SDS011;10910;50.932;0.246;2022-08-03T09:27:28;0.40;;;0.40;;
21497;SDS011;10910;50.932;0.246;2022-08-03T09:29:54;0.30;;;0.30;;
21497;SDS011;10910;50.932;0.246;2022-08-03T09:32:21;0.30;;;0.30;;
21497;SDS011;10910;50.932;0.246;2022-08-03T09:34:48;0.20;;;0.20;;
21497;SDS011;10910;50.932;0.246;2022-08-03T09:37:15;0.30;;;0.30;;
21497;SDS011;10910;50.932;0.246;2022-08-03T09:39:42;0.30;;;0.30;;
21497;SDS011;10910;50.932;0.246;2022-08-03T09:42:16;0.30;;;0.30;;
21497;SDS011;10910;50.932;0.246;2022-08-03T09:44:43;0.30;;;0.30;;
21497;SDS011;10910;50.932;0.246;2022-08-03T09:47:11;0.20;;;0.20;;
21497;SDS011;10910;50.932;0.246;2022-08-03T09:49:38;0.30;;;0.30;;
21497;SDS011;10910;50.932;0.246;2022-08-03T09:52:12;0.30;;;0.30;;
21497;SDS011;10910;50.932;0.246;2022-08-03T09:54:39;0.30;;;0.30;;
21497;SDS011;10910;50.932;0.246;2022-08-03T09:57:05;0.30;;;0.30;;
21497;SDS011;10910;50.932;0.246;2022-08-03T09:59:31;0.30;;;0.30;;
21497;SDS011;10910;50.932;0.246;2022-08-03T10:01:58;0.20;;;0.20;;
21497;SDS011;10910;50.932;0.246;2022-08-03T10:04:24;0.30;;;0.30;;
21497;SDS011;10910;50.932;0.246;2022-08-03T10:09:52;0.35;;;0.35;;
21497;SDS011;10910;50.932;0.246;2022-08-03T10:12:18;0.20;;;0.20;;
21497;SDS011;10910;50.932;0.246;2022-08-03T10:14:44;0.30;;;0.30;;
21497;SDS011;10910;50.932;0.246;2022-08-03T10:17:11;0.30;;;0.30;;
21497;SDS011;10910;50.932;0.246;2022-08-03T10:19:37;0.35;;;0.35;;
21497;SDS011;10910;50.932;0.246;2022-08-03T10:22:05;0.30;;;0.30;;
21497;SDS011;10910;50.932;0.246;2022-08-03T10:24:33;0.30;;;0.30;;
21497;SDS011;10910;50.932;0.246;2022-08-03T10:27:06;0.30;;;0.30;;
21497;SDS011;10910;50.932;0.246;2022-08-03T10:29:38;0.30;;;0.30;;
21497;SDS011;10910;50.932;0.246;2022-08-03T10:32:30;0.30;;;0.30;;
21497;SDS011;10910;50.932;0.246;2022-08-03T10:34:57;0.30;;;0.30;;
21497;SDS011;10910;50.932;0.246;2022-08-03T10:37:24;0.32;;;0.32;;
21497;SDS011;10910;50.932;0.246;2022-08-03T10:39:52;0.30;;;0.30;;
21497;SDS011;10910;50.932;0.246;2022-08-03T10:42:22;0.30;;;0.30;;
21497;SDS011;10910;50.932;0.246;2022-08-03T10:44:49;0.30;;;0.30;;
21497;SDS011;10910;50.932;0.246;2022-08-03T10:47:17;0.30;;;0.30;;
21497;SDS011;10910;50.932;0.246;2022-08-03T10:49:43;0.20;;;0.20;;
21497;SDS011;10910;50.932;0.246;2022-08-03T10:52:12;0.20;;;0.20;;
21497;SDS011;10910;50.932;0.246;2022-08-03T11:00:21;0.30;;;0.30;;
21497;SDS011;10910;50.932;0.246;2022-08-03T11:05:30;0.30;;;0.30;;
21497;SDS011;10910;50.932;0.246;2022-08-03T11:10:55;0.20;;;0.20;;
21497;SDS011;10910;50.932;0.246;2022-08-03T11:13:22;0.20;;;0.20;;
21497;SDS011;10910;50.932;0.246;2022-08-03T11:15:50;0.20;;;0.20;;
21497;SDS011;10910;50.932;0.246;2022-08-03T11:18:16;0.20;;;0.20;;
21497;SDS011;10910;50.932;0.246;2022-08-03T11:23:09;0.20;;;0.20;;
21497;SDS011;10910;50.932;0.246;2022-08-03T11:28:32;0.30;;;0.30;;
21497;SDS011;10910;50.932;0.246;2022-08-03T11:39:50;0.30;;;0.30;;
21497;SDS011;10910;50.932;0.246;2022-08-03T11:44:49;0.20;;;0.20;;
21497;SDS011;10910;50.932;0.246;2022-08-03T11:47:16;0.20;;;0.20;;
21497;SDS011;10910;50.932;0.246;2022-08-03T11:49:45;0.30;;;0.30;;
21497;SDS011;10910;50.932;0.246;2022-08-03T11:52:12;0.20;;;0.20;;
21497;SDS011;10910;50.932;0.246;2022-08-03T11:54:38;0.30;;;0.30;;
21497;SDS011;10910;50.932;0.246;2022-08-03T11:57:07;0.20;;;0.20;;
21497;SDS011;10910;50.932;0.246;2022-08-03T11:59:34;0.22;;;0.22;;
21497;SDS011;10910;50.932;0.246;2022-08-03T12:02:05;0.20;;;0.20;;
21497;SDS011;10910;50.932;0.246;2022-08-03T12:04:31;0.30;;;0.30;;
21497;SDS011;10910;50.932;0.246;2022-08-03T12:07:00;0.20;;;0.20;;
21497;SDS011;10910;50.932;0.246;2022-08-03T12:09:26;0.20;;;0.20;;
21497;SDS011;10910;50.932;0.246;2022-08-03T12:11:52;0.30;;;0.30;;
21497;SDS011;10910;50.932;0.246;2022-08-03T12:14:18;0.22;;;0.22;;
21497;SDS011;10910;50.932;0.246;2022-08-03T12:16:47;0.30;;;0.30;;
21497;SDS011;10910;50.932;0.246;2022-08-03T12:19:13;0.20;;;0.20;;
21497;SDS011;10910;50.932;0.246;2022-08-03T12:21:46;0.20;;;0.20;;
21497;SDS011;10910;50.932;0.246;2022-08-03T12:24:12;0.20;;;0.20;;
21497;SDS011;10910;50.932;0.246;2022-08-03T12:26:49;0.20;;;0.20;;
21497;SDS011;10910;50.932;0.246;2022-08-03T12:29:18;0.30;;;0.30;;
21497;SDS011;10910;50.932;0.246;2022-08-03T12:31:45;0.20;;;0.20;;
21497;SDS011;10910;50.932;0.246;2022-08-03T12:34:11;0.20;;;0.20;;
21497;SDS011;10910;50.932;0.246;2022-08-03T12:36:37;0.20;;;0.20;;
21497;SDS011;10910;50.932;0.246;2022-08-03T12:39:14;0.10;;;0.10;;
21497;SDS011;10910;50.932;0.246;2022-08-03T12:41:40;0.20;;;0.20;;
21497;SDS011;10910;50.932;0.246;2022-08-03T12:44:07;0.20;;;0.20;;
21497;SDS011;10910;50.932;0.246;2022-08-03T12:46:34;0.20;;;0.20;;
21497;SDS011;10910;50.932;0.246;2022-08-03T12:51:27;0.20;;;0.20;;
21497;SDS011;10910;50.932;0.246;2022-08-03T12:53:54;0.20;;;0.20;;
21497;SDS011;10910;50.932;0.246;2022-08-03T12:56:20;0.20;;;0.20;;
21497;SDS011;10910;50.932;0.246;2022-08-03T12:58:46;0.10;;;0.10;;
21497;SDS011;10910;50.932;0.246;2022-08-03T13:01:14;0.20;;;0.20;;
21497;SDS011;10910;50.932;0.246;2022-08-03T13:03:47;0.20;;;0.20;;
21497;SDS011;10910;50.932;0.246;2022-08-03T13:06:14;0.20;;;0.20;;
21497;SDS011;10910;50.932;0.246;2022-08-03T13:08:41;0.20;;;0.20;;
21497;SDS011;10910;50.932;0.246;2022-08-03T13:11:23;0.20;;;0.20;;
21497;SDS011;10910;50.932;0.246;2022-08-03T13:13:50;0.20;;;0.20;;
21497;SDS011;10910;50.932;0.246;2022-08-03T13:16:16;0.20;;;0.20;;
21497;SDS011;10910;50.932;0.246;2022-08-03T13:18:42;0.20;;;0.20;;
21497;SDS011;10910;50.932;0.246;2022-08-03T13:21:11;0.20;;;0.20;;
21497;SDS011;10910;50.932;0.246;2022-08-03T13:23:37;0.15;;;0.15;;
21497;SDS011;10910;50.932;0.246;2022-08-03T13:26:03;0.20;;;0.20;;
21497;SDS011;10910;50.932;0.246;2022-08-03T13:28:29;0.20;;;0.20;;
21497;SDS011;10910;50.932;0.246;2022-08-03T13:30:55;0.20;;;0.20;;
21497;SDS011;10910;50.932;0.246;2022-08-03T13:33:21;0.20;;;0.20;;
21497;SDS011;10910;50.932;0.246;2022-08-03T13:35:47;0.20;;;0.20;;
21497;SDS011;10910;50.932;0.246;2022-08-03T13:38:13;0.20;;;0.20;;
21497;SDS011;10910;50.932;0.246;2022-08-03T13:40:39;0.20;;;0.20;;
21497;SDS011;10910;50.932;0.246;2022-08-03T13:43:05;0.20;;;0.20;;
21497;SDS011;10910;50.932;0.246;2022-08-03T13:45:31;0.20;;;0.20;;
21497;SDS011;10910;50.932;0.246;2022-08-03T13:47:57;0.20;;;0.20;;
21497;SDS011;10910;50.932;0.246;2022-08-03T13:50:23;0.20;;;0.20;;
21497;SDS011;10910;50.932;0.246;2022-08-03T13:52:50;0.20;;;0.20;;
21497;SDS011;10910;50.932;0.246;2022-08-03T13:55:16;0.20;;;0.20;;
21497;SDS011;10910;50.932;0.246;2022-08-03T13:57:42;0.20;;;0.20;;
21497;SDS011;10910;50.932;0.246;2022-08-03T14:00:08;0.20;;;0.20;;
21497;SDS011;10910;50.932;0.246;2022-08-03T14:02:34;0.20;;;0.20;;
21497;SDS011;10910;50.932;0.246;2022-08-03T14:05:01;0.20;;;0.20;;
21497;SDS011;10910;50.932;0.246;2022-08-03T14:07:27;0.20;;;0.20;;
21497;SDS011;10910;50.932;0.246;2022-08-03T14:09:53;0.20;;;0.20;;
21497;SDS011;10910;50.932;0.246;2022-08-03T14:12:19;0.20;;;0.20;;
21497;SDS011;10910;50.932;0.246;2022-08-03T14:14:45;0.20;;;0.20;;
21497;SDS011;10910;50.932;0.246;2022-08-03T14:17:11;0.10;;;0.10;;
21497;SDS011;10910;50.932;0.246;2022-08-03T14:19:37;0.10;;;0.10;;
21497;SDS011;10910;50.932;0.246;2022-08-03T14:22:03;0.10;;;0.10;;
21497;SDS011;10910;50.932;0.246;2022-08-03T14:24:29;0.20;;;0.20;;
21497;SDS011;10910;50.932;0.246;2022-08-03T14:26:55;0.20;;;0.20;;
21497;SDS011;10910;50.932;0.246;2022-08-03T14:29:21;0.10;;;0.10;;
21497;SDS011;10910;50.932;0.246;2022-08-03T14:31:47;0.17;;;0.17;;
21497;SDS011;10910;50.932;0.246;2022-08-03T14:34:14;0.10;;;0.10;;
21497;SDS011;10910;50.932;0.246;2022-08-03T14:36:40;0.10;;;0.10;;
21497;SDS011;10910;50.932;0.246;2022-08-03T14:39:06;0.10;;;0.10;;
21497;SDS011;10910;50.932;0.246;2022-08-03T14:41:32;0.10;;;0.10;;
21497;SDS011;10910;50.932;0.246;2022-08-03T14:43:58;0.10;;;0.10;;
21497;SDS011;10910;50.932;0.246;2022-08-03T14:46:24;0.10;;;0.10;;
21497;SDS011;10910;50.932;0.246;2022-08-03T14:48:50;0.10;;;0.10;;
21497;SDS011;10910;50.932;0.246;2022-08-03T14:51:16;0.10;;;0.10;;
21497;SDS011;10910;50.932;0.246;2022-08-03T14:53:43;0.10;;;0.10;;
21497;SDS011;10910;50.932;0.246;2022-08-03T14:56:10;0.13;;;0.13;;
21497;SDS011;10910;50.932;0.246;2022-08-03T14:58:36;0.20;;;0.20;;
21497;SDS011;10910;50.932;0.246;2022-08-03T15:01:02;0.20;;;0.20;;
21497;SDS011;10910;50.932;0.246;2022-08-03T15:03:28;0.20;;;0.20;;
21497;SDS011;10910;50.932;0.246;2022-08-03T15:05:55;0.20;;;0.20;;
21497;SDS011;10910;50.932;0.246;2022-08-03T15:08:21;0.15;;;0.15;;
21497;SDS011;10910;50.932;0.246;2022-08-03T15:10:48;0.20;;;0.20;;
21497;SDS011;10910;50.932;0.246;2022-08-03T15:13:14;0.10;;;0.10;;
21497;SDS011;10910;50.932;0.246;2022-08-03T15:15:40;0.10;;;0.10;;
21497;SDS011;10910;50.932;0.246;2022-08-03T15:18:07;0.10;;;0.10;;
21497;SDS011;10910;50.932;0.246;2022-08-03T15:20:33;0.10;;;0.10;;
21497;SDS011;10910;50.932;0.246;2022-08-03T15:22:59;0.20;;;0.20;;
21497;SDS011;10910;50.932;0.246;2022-08-03T15:25:25;0.10;;;0.10;;
21497;SDS011;10910;50.932;0.246;2022-08-03T15:27:51;0.10;;;0.10;;
21497;SDS011;10910;50.932;0.246;2022-08-03T15:30:17;0.20;;;0.20;;
21497;SDS011;10910;50.932;0.246;2022-08-03T15:32:43;0.20;;;0.20;;
21497;SDS011;10910;50.932;0.246;2022-08-03T15:35:10;0.20;;;0.20;;
21497;SDS011;10910;50.932;0.246;2022-08-03T15:37:36;0.10;;;0.10;;
21497;SDS011;10910;50.932;0.246;2022-08-03T15:40:02;0.10;;;0.10;;